Time;durP1;ratioP1;P1;durP2;ratioP2;P2;SDS_P1;SDS_P2;PMS_P1;PMS_P2;Temp;Humidity;BMP_temperature;BMP_pressure;BME280_temperature;BME280_humidity;BME280_pressure;Samples;Min_cycle;Max_cycle;Signal;HPM_P1;HPM_P2
2022/06/05 00:00:07;;;;;;;;;;;;;;;22.31;60.39;99805.94;4484557;32;19981;-88
2022/06/05 00:02:41;;;;;;;;;;;;;;;22.53;60.40;99815.69;4484535;32;19965;-89
2022/06/05 00:05:27;;;;;;;;;;;;;;;22.54;60.40;99815.56;4470493;32;19992;-88
2022/06/05 00:07:59;;;;;;;;;;;;;;;22.64;60.41;99808.53;4470035;32;19988;-89
2022/06/05 00:10:29;;;;;;;;;;;;;;;22.35;60.39;99808.22;4470823;32;19992;-89
2022/06/05 00:13:00;;;;;;;;;;;;;;;22.47;60.40;99809.03;4485100;32;19977;-88
2022/06/05 00:15:25;;;;;;;;;;;;;;;22.32;60.38;99813.78;4470634;32;19985;-87
2022/06/05 00:17:50;;;;;;;;;;;;;;;22.41;60.39;99808.69;4484710;32;20029;-89
2022/06/05 00:20:16;;;;;;;;;;;;;;;22.52;60.40;99806.03;4470137;32;20070;-89
2022/06/05 00:22:41;;;;;;;;;;;;;;;22.54;60.40;99794.34;4470380;32;19986;-89
2022/06/05 00:25:09;;;;;;;;;;;;;;;22.48;60.39;99797.50;4484444;32;19976;-89
2022/06/05 00:27:46;;;;;;;;;;;;;;;22.58;60.41;99793.13;4471796;31;20032;-89
2022/06/05 00:30:21;;;;;;;;;;;;;;;22.40;60.39;99802.53;4473172;31;19980;-88
2022/06/05 00:32:51;;;;;;;;;;;;;;;22.66;60.41;99803.09;4500566;31;19984;-89
2022/06/05 00:35:17;;;;;;;;;;;;;;;22.58;60.40;99809.03;4486080;31;20333;-88
2022/06/05 00:37:48;;;;;;;;;;;;;;;22.44;60.39;99805.78;4500561;31;19980;-89
2022/06/05 00:40:32;;;;;;;;;;;;;;;22.57;60.39;99795.91;4485679;31;19983;-89
2022/06/05 00:42:58;;;;;;;;;;;;;;;22.54;60.40;99786.38;4500325;31;19975;-89
2022/06/05 00:45:24;;;;;;;;;;;;;;;22.61;60.40;99782.25;4472765;31;20025;-89
2022/06/05 00:47:49;;;;;;;;;;;;;;;22.70;60.40;99772.69;4485852;31;20008;-89
2022/06/05 00:50:15;;;;;;;;;;;;;;;22.65;60.41;99774.88;4486810;31;20042;-89
2022/06/05 00:52:41;;;;;;;;;;;;;;;22.66;60.40;99772.09;4474797;31;19971;-89
2022/06/05 00:55:07;;;;;;;;;;;;;;;22.63;60.39;99780.31;4502414;31;20015;-89
2022/06/05 00:57:32;;;;;;;;;;;;;;;22.53;60.40;99789.16;4487870;31;20036;-89
2022/06/05 00:59:58;;;;;;;;;;;;;;;22.56;60.39;99773.81;4474733;31;19972;-89
2022/06/05 01:02:23;;;;;;;;;;;;;;;22.71;60.40;99766.41;4474953;31;19976;-89
2022/06/05 01:04:49;;;;;;;;;;;;;;;22.79;60.41;99771.94;4487915;31;20257;-89
2022/06/05 01:07:14;;;;;;;;;;;;;;;22.66;60.41;99761.47;4474833;31;20263;-89
2022/06/05 01:09:40;;;;;;;;;;;;;;;22.61;60.40;99757.53;4487799;31;20332;-90
2022/06/05 01:12:24;;;;;;;;;;;;;;;22.58;60.40;99755.13;4487840;31;20011;-89
2022/06/05 01:14:58;;;;;;;;;;;;;;;22.47;60.39;99752.50;4502038;31;19980;-89
2022/06/05 01:17:34;;;;;;;;;;;;;;;22.66;60.41;99753.53;4487719;31;20006;-89
2022/06/05 01:20:03;;;;;;;;;;;;;;;22.60;60.40;99762.00;4487352;31;20336;-88
2022/06/05 01:22:34;;;;;;;;;;;;;;;22.44;60.39;99758.03;4502006;31;20300;-89
2022/06/05 01:25:17;;;;;;;;;;;;;;;22.39;60.39;99757.59;4474356;31;20651;-89
2022/06/05 01:27:44;;;;;;;;;;;;;;;22.53;60.40;99762.63;4474567;31;20027;-88
2022/06/05 01:30:11;;;;;;;;;;;;;;;22.64;60.41;99755.47;4470974;32;19973;-87
2022/06/05 01:32:40;;;;;;;;;;;;;;;22.67;60.40;99755.22;4484781;32;20503;-86
2022/06/05 01:35:08;;;;;;;;;;;;;;;22.63;60.40;99763.53;4485426;31;20008;-88
2022/06/05 01:37:35;;;;;;;;;;;;;;;22.61;60.40;99765.50;4484738;32;20003;-88
2022/06/05 01:40:05;;;;;;;;;;;;;;;22.62;60.40;99754.75;4471389;32;20643;-88
2022/06/05 01:42:35;;;;;;;;;;;;;;;22.82;60.41;99758.44;4486089;31;19972;-89
2022/06/05 01:45:19;;;;;;;;;;;;;;;22.67;60.41;99760.50;4484396;32;20032;-89
2022/06/05 01:47:45;;;;;;;;;;;;;;;22.67;60.41;99770.28;4485951;31;20356;-88
2022/06/05 01:50:18;;;;;;;;;;;;;;;22.67;60.41;99762.31;4484674;32;19985;-87
2022/06/05 01:52:52;;;;;;;;;;;;;;;22.70;60.40;99756.75;4486022;31;20081;-87
2022/06/05 01:55:46;;;;;;;;;;;;;;;22.68;60.41;99756.03;4485757;31;19995;-89
2022/06/05 01:58:12;;;;;;;;;;;;;;;22.51;60.40;99762.75;4415796;31;20393;-87
2022/06/05 02:00:37;;;;;;;;;;;;;;;22.57;60.39;99759.59;4484270;32;19982;-87
2022/06/05 02:03:05;;;;;;;;;;;;;;;22.60;60.40;99764.66;4484626;32;19977;-88
2022/06/05 02:05:32;;;;;;;;;;;;;;;22.85;60.41;99752.88;4472117;32;20004;-87
2022/06/05 02:07:58;;;;;;;;;;;;;;;23.06;60.42;99752.91;4485203;32;20223;-87
2022/06/05 02:10:28;;;;;;;;;;;;;;;22.98;60.42;99757.19;4485625;32;20370;-87
2022/06/05 02:12:54;;;;;;;;;;;;;;;22.91;60.41;99756.84;4485359;32;20320;-88
2022/06/05 02:15:19;;;;;;;;;;;;;;;22.81;60.42;99763.84;4485564;32;20025;-87
2022/06/05 02:17:45;;;;;;;;;;;;;;;22.79;60.40;99771.94;4485626;32;20028;-88
2022/06/05 02:20:10;;;;;;;;;;;;;;;22.85;60.41;99768.81;4485595;32;20033;-88
2022/06/05 02:22:40;;;;;;;;;;;;;;;22.72;60.40;99754.00;4472484;32;19972;-87
2022/06/05 02:25:05;;;;;;;;;;;;;;;22.52;60.39;99758.28;4472504;32;19997;-88
2022/06/05 02:27:31;;;;;;;;;;;;;;;22.72;60.40;99767.28;4485605;32;20014;-88
2022/06/05 02:29:56;;;;;;;;;;;;;;;22.82;60.41;99765.56;4485565;32;20544;-88
2022/06/05 02:32:25;;;;;;;;;;;;;;;22.89;60.42;99772.06;4472474;32;19969;-88
2022/06/05 02:34:56;;;;;;;;;;;;;;;22.93;60.42;99766.34;4485577;32;20073;-88
2022/06/05 02:37:36;;;;;;;;;;;;;;;22.80;60.42;99757.72;4485876;32;20060;-87
2022/06/05 02:40:11;;;;;;;;;;;;;;;22.64;60.41;99752.81;4485352;32;19968;-88
2022/06/05 02:42:41;;;;;;;;;;;;;;;22.56;60.39;99755.25;4486782;32;19976;-87
2022/06/05 02:45:19;;;;;;;;;;;;;;;22.62;60.40;99743.28;4485675;32;19980;-86
2022/06/05 02:47:59;;;;;;;;;;;;;;;22.63;60.40;99752.94;4486818;31;20003;-87
2022/06/05 02:50:25;;;;;;;;;;;;;;;22.62;60.40;99751.25;4485589;32;20019;-87
2022/06/05 02:52:50;;;;;;;;;;;;;;;22.45;60.39;99757.91;4486855;32;20013;-87
2022/06/05 02:55:16;;;;;;;;;;;;;;;22.26;60.39;99763.88;4485221;32;19985;-88
2022/06/05 02:57:42;;;;;;;;;;;;;;;22.11;60.37;99757.16;4485432;32;19996;-88
2022/06/05 03:00:08;;;;;;;;;;;;;;;22.06;60.37;99769.94;4472231;32;19972;-88
2022/06/05 03:05:19;;;;;;;;;;;;;;;22.11;60.38;99759.81;4485636;32;20041;-88
2022/06/05 03:07:44;;;;;;;;;;;;;;;22.20;60.38;99761.72;4486737;31;19984;-87
2022/06/05 03:10:09;;;;;;;;;;;;;;;22.18;60.37;99773.41;4486110;32;20430;-88
2022/06/05 03:12:34;;;;;;;;;;;;;;;22.15;60.38;99771.00;4484493;32;20004;-88
2022/06/05 03:15:01;;;;;;;;;;;;;;;22.04;60.38;99766.56;4484574;32;29271;-88
2022/06/05 03:17:29;;;;;;;;;;;;;;;21.91;60.36;99755.19;4472311;32;20010;-88
2022/06/05 03:19:54;;;;;;;;;;;;;;;21.92;60.36;99762.19;4484931;32;19969;-88
2022/06/05 03:22:20;;;;;;;;;;;;;;;21.92;60.36;99775.44;4485125;32;19972;-88
2022/06/05 03:24:45;;;;;;;;;;;;;;;21.90;60.37;99769.41;4484719;32;20360;-88
2022/06/05 03:27:10;;;;;;;;;;;;;;;21.81;60.36;99762.19;4471684;32;22303;-86
2022/06/05 03:29:35;;;;;;;;;;;;;;;21.94;60.36;99766.41;4486449;31;20219;-88
2022/06/05 03:32:01;;;;;;;;;;;;;;;21.95;60.36;99775.19;4485949;32;20704;-87
2022/06/05 03:34:26;;;;;;;;;;;;;;;22.01;60.36;99777.38;4486368;32;20238;-89
2022/06/05 03:36:51;;;;;;;;;;;;;;;21.99;60.36;99781.94;4486213;32;19991;-88
2022/06/05 03:39:16;;;;;;;;;;;;;;;22.10;60.38;99781.97;4485929;32;19972;-88
2022/06/05 03:41:42;;;;;;;;;;;;;;;22.22;60.38;99786.28;4486497;32;20013;-89
2022/06/05 03:44:07;;;;;;;;;;;;;;;22.25;60.38;99791.38;4484563;32;19991;-88
2022/06/05 03:46:35;;;;;;;;;;;;;;;22.37;60.38;99797.50;4484919;32;20006;-88
2022/06/05 03:49:01;;;;;;;;;;;;;;;22.49;60.40;99799.19;4486102;31;19984;-88
2022/06/05 03:51:26;;;;;;;;;;;;;;;22.54;60.40;99807.59;4471782;32;20636;-88
2022/06/05 03:53:51;;;;;;;;;;;;;;;22.57;60.39;99809.16;4485891;32;20028;-87
2022/06/05 03:56:20;;;;;;;;;;;;;;;22.61;60.40;99811.44;4485886;32;19988;-86
2022/06/05 03:58:45;;;;;;;;;;;;;;;22.60;60.40;99819.53;4484796;32;20032;-88
2022/06/05 04:01:11;;;;;;;;;;;;;;;22.68;60.41;99825.03;4484503;32;19985;-88
2022/06/05 04:03:36;;;;;;;;;;;;;;;22.76;60.41;99822.62;4484595;32;19997;-88
2022/06/05 04:06:04;;;;;;;;;;;;;;;22.83;60.41;99818.53;4471533;32;19992;-88
2022/06/05 04:08:29;;;;;;;;;;;;;;;22.90;60.41;99822.34;4484394;32;20055;-88
2022/06/05 04:10:54;;;;;;;;;;;;;;;23.07;60.42;99828.09;4484391;32;20245;-87
2022/06/05 04:13:20;;;;;;;;;;;;;;;23.05;60.43;99832.69;4484187;32;21813;-87
2022/06/05 04:15:45;;;;;;;;;;;;;;;22.99;60.42;99834.06;4485246;32;23211;-87
2022/06/05 04:18:10;;;;;;;;;;;;;;;23.15;60.43;99830.94;4484826;32;20025;-87
2022/06/05 04:20:37;;;;;;;;;;;;;;;23.22;60.43;99840.97;4484370;32;19985;-87
2022/06/05 04:23:02;;;;;;;;;;;;;;;23.21;60.43;99838.44;4485820;31;19980;-86
2022/06/05 04:25:28;;;;;;;;;;;;;;;23.48;60.44;99843.25;4488064;31;20015;-87
2022/06/05 04:27:53;;;;;;;;;;;;;;;23.57;60.44;99835.38;4486494;32;19964;-87
2022/06/05 04:30:18;;;;;;;;;;;;;;;23.67;60.46;99843.44;4486980;32;25123;-87
2022/06/05 04:32:43;;;;;;;;;;;;;;;23.76;60.46;99845.28;4487494;32;20260;-86
2022/06/05 04:35:09;;;;;;;;;;;;;;;23.92;60.47;99854.63;4473259;32;20025;-88
2022/06/05 04:37:34;;;;;;;;;;;;;;;24.06;60.46;99848.94;4487597;31;19964;-88
2022/06/05 04:39:59;;;;;;;;;;;;;;;24.20;60.48;99851.25;4486231;32;20858;-88
2022/06/05 04:42:25;;;;;;;;;;;;;;;24.30;60.49;99835.34;4487071;32;20050;-88
2022/06/05 04:44:50;;;;;;;;;;;;;;;24.31;60.49;99842.34;4486422;32;20600;-88
2022/06/05 04:47:15;;;;;;;;;;;;;;;24.33;60.48;99835.09;4485631;32;20008;-89
2022/06/05 04:49:40;;;;;;;;;;;;;;;24.46;60.50;99849.00;4486172;32;20033;-88
2022/06/05 04:52:06;;;;;;;;;;;;;;;24.62;60.50;99846.69;4486313;32;19976;-89
2022/06/05 04:54:31;;;;;;;;;;;;;;;24.57;60.50;99851.53;4486252;32;20015;-89
2022/06/05 04:56:56;;;;;;;;;;;;;;;24.60;60.49;99859.25;4487158;32;20257;-88
2022/06/05 04:59:22;;;;;;;;;;;;;;;24.48;60.49;99858.53;4486233;32;19976;-88
2022/06/05 05:01:47;;;;;;;;;;;;;;;24.56;60.50;99863.16;4486714;32;20077;-87
2022/06/05 05:04:12;;;;;;;;;;;;;;;24.47;60.49;99867.50;4487315;31;19999;-86
2022/06/05 05:06:38;;;;;;;;;;;;;;;24.64;60.50;99863.34;4487379;31;20278;-86
2022/06/05 05:09:03;;;;;;;;;;;;;;;24.59;60.50;99865.56;4472745;32;20298;-87
2022/06/05 05:11:28;;;;;;;;;;;;;;;24.52;60.49;99883.06;4486064;32;19988;-87
2022/06/05 05:13:54;;;;;;;;;;;;;;;24.43;60.49;99883.88;4486001;32;20003;-87
2022/06/05 05:16:19;;;;;;;;;;;;;;;24.32;60.49;99891.94;4487324;31;20299;-85
2022/06/05 05:18:44;;;;;;;;;;;;;;;24.42;60.49;99901.66;4487108;31;20380;-87
2022/06/05 05:21:11;;;;;;;;;;;;;;;24.43;60.49;99900.69;4487169;32;20022;-87
2022/06/05 05:23:36;;;;;;;;;;;;;;;24.46;60.50;99907.53;4486064;32;20013;-86
2022/06/05 05:26:05;;;;;;;;;;;;;;;24.11;60.48;99910.53;4487355;32;19995;-86
2022/06/05 05:28:30;;;;;;;;;;;;;;;24.00;60.47;99924.78;4487204;31;20016;-86
2022/06/05 05:30:55;;;;;;;;;;;;;;;23.99;60.47;99923.09;4486758;32;20024;-86
2022/06/05 05:33:20;;;;;;;;;;;;;;;24.34;60.49;99919.25;4486985;32;20004;-86
2022/06/05 05:35:46;;;;;;;;;;;;;;;24.38;60.49;99913.53;4485128;32;21524;-86
2022/06/05 05:38:11;;;;;;;;;;;;;;;24.47;60.49;99915.41;4486726;32;19968;-87
2022/06/05 05:43:20;;;;;;;;;;;;;;;24.61;60.50;99914.19;4486242;32;20002;-86
2022/06/05 05:45:46;;;;;;;;;;;;;;;24.82;60.51;99915.91;4487215;32;20004;-86
2022/06/05 05:48:11;;;;;;;;;;;;;;;24.88;60.52;99912.75;4485864;32;20008;-86
2022/06/05 05:50:37;;;;;;;;;;;;;;;25.08;60.53;99909.19;4487120;32;19977;-86
2022/06/05 05:53:02;;;;;;;;;;;;;;;24.99;60.53;99910.81;4487199;32;20011;-86
2022/06/05 05:55:27;;;;;;;;;;;;;;;25.19;60.53;99911.69;4472598;32;19973;-86
2022/06/05 05:57:52;;;;;;;;;;;;;;;25.21;60.53;99901.75;4486659;32;19976;-86
2022/06/05 06:00:18;;;;;;;;;;;;;;;25.27;60.53;99909.16;4486721;32;19968;-85
2022/06/05 06:02:43;;;;;;;;;;;;;;;25.21;60.53;99904.41;4485838;32;20011;-86
2022/06/05 06:05:08;;;;;;;;;;;;;;;25.35;60.54;99909.34;4487023;32;19980;-86
2022/06/05 06:07:34;;;;;;;;;;;;;;;25.21;60.53;99906.22;4487088;31;19991;-85
2022/06/05 06:09:59;;;;;;;;;;;;;;;25.12;60.52;99910.56;4485734;32;19981;-86
2022/06/05 06:12:24;;;;;;;;;;;;;;;25.00;60.53;99909.84;4487072;31;19984;-86
2022/06/05 06:14:50;;;;;;;;;;;;;;;25.12;60.53;99901.75;4486717;32;20013;-85
2022/06/05 06:17:15;;;;;;;;;;;;;;;25.26;60.54;99909.31;4486987;31;20004;-86
2022/06/05 06:19:40;;;;;;;;;;;;;;;25.36;60.54;99892.38;4485267;32;20295;-86
2022/06/05 06:22:06;;;;;;;;;;;;;;;25.29;60.54;99901.87;4486804;32;20008;-87
2022/06/05 06:24:31;;;;;;;;;;;;;;;25.32;60.54;99892.78;4485380;32;19995;-86
2022/06/05 06:26:56;;;;;;;;;;;;;;;25.33;60.54;99886.47;4486821;32;19995;-86
2022/06/05 06:29:21;;;;;;;;;;;;;;;25.35;60.54;99890.69;4486937;32;19969;-86
2022/06/05 06:31:47;;;;;;;;;;;;;;;25.49;60.55;99891.22;4485740;32;19992;-86
2022/06/05 06:34:12;;;;;;;;;;;;;;;25.51;60.55;99886.59;4486782;32;20008;-86
2022/06/05 06:36:37;;;;;;;;;;;;;;;25.61;60.55;99890.97;4486813;32;19983;-86
2022/06/05 06:39:03;;;;;;;;;;;;;;;25.67;60.56;99887.75;4486473;32;19976;-86
2022/06/05 06:41:28;;;;;;;;;;;;;;;25.72;60.56;99889.13;4485498;32;20314;-86
2022/06/05 06:43:53;;;;;;;;;;;;;;;25.83;60.56;99892.50;4485619;32;19998;-86
2022/06/05 06:46:19;;;;;;;;;;;;;;;26.16;60.58;99884.97;4486166;32;20301;-86
2022/06/05 06:48:44;;;;;;;;;;;;;;;26.27;60.59;99879.47;4484583;32;20310;-86
2022/06/05 06:51:09;;;;;;;;;;;;;;;26.29;60.59;99878.34;4485462;32;20015;-86
2022/06/05 06:53:35;;;;;;;;;;;;;;;26.29;60.59;99872.16;4486754;31;19972;-86
2022/06/05 06:56:05;;;;;;;;;;;;;;;26.46;60.59;99859.88;4486635;31;19976;-86
2022/06/05 06:58:31;;;;;;;;;;;;;;;26.52;60.60;99875.31;4485390;32;19989;-86
2022/06/05 07:00:56;;;;;;;;;;;;;;;26.56;60.60;99879.37;4486156;32;22408;-86
2022/06/05 07:03:21;;;;;;;;;;;;;;;26.70;60.61;99872.69;4484987;32;23122;-86
2022/06/05 07:05:46;;;;;;;;;;;;;;;26.83;60.62;99863.34;4485115;32;20004;-86
2022/06/05 07:08:12;;;;;;;;;;;;;;;26.95;60.62;99866.63;4486547;32;20315;-85
2022/06/05 07:10:37;;;;;;;;;;;;;;;27.12;60.64;99860.47;4484776;32;24280;-86
2022/06/05 07:13:03;;;;;;;;;;;;;;;27.21;60.64;99869.44;4485395;32;20021;-85
2022/06/05 07:15:34;;;;;;;;;;;;;;;27.14;60.63;99871.84;4486650;31;19979;-86
2022/06/05 07:18:04;;;;;;;;;;;;;;;27.19;60.63;99860.72;4486728;31;20044;-86
2022/06/05 07:20:33;;;;;;;;;;;;;;;27.30;60.64;99860.50;4486691;31;20350;-86
2022/06/05 07:22:59;;;;;;;;;;;;;;;27.39;60.65;99856.87;4472320;32;19981;-86
2022/06/05 07:25:24;;;;;;;;;;;;;;;27.50;60.65;99855.81;4486032;32;22810;-86
2022/06/05 07:27:49;;;;;;;;;;;;;;;27.75;60.67;99856.87;4485880;32;28868;-85
2022/06/05 07:30:14;;;;;;;;;;;;;;;27.81;60.66;99853.56;4485428;32;19989;-86
2022/06/05 07:32:39;;;;;;;;;;;;;;;27.92;60.68;99855.13;4485109;32;20342;-85
2022/06/05 07:35:05;;;;;;;;;;;;;;;28.05;60.68;99861.75;4486262;32;19980;-85
2022/06/05 07:37:30;;;;;;;;;;;;;;;28.16;60.69;99857.97;4486575;32;19989;-86
2022/06/05 07:39:55;;;;;;;;;;;;;;;28.13;60.67;99859.09;4485085;32;20008;-85
2022/06/05 07:42:21;;;;;;;;;;;;;;;28.25;60.69;99866.91;4484766;32;24092;-85
2022/06/05 07:44:46;;;;;;;;;;;;;;;28.28;60.69;99863.91;4485987;32;20851;-86
2022/06/05 07:47:11;;;;;;;;;;;;;;;28.35;60.70;99863.09;4486006;32;20010;-85
2022/06/05 07:49:40;;;;;;;;;;;;;;;28.53;60.70;99864.84;4484981;32;20051;-85
2022/06/05 07:54:49;;;;;;;;;;;;;;;28.65;60.71;99864.41;4486257;32;19995;-86
2022/06/05 07:57:15;;;;;;;;;;;;;;;28.87;60.73;99876.41;4486640;32;19980;-85
2022/06/05 07:59:43;;;;;;;;;;;;;;;28.98;60.73;99876.09;4488847;32;20024;-85
2022/06/05 08:02:11;;;;;;;;;;;;;;;28.95;60.73;99879.09;4491357;31;20265;-85
2022/06/05 08:04:37;;;;;;;;;;;;;;;28.84;60.72;99883.88;4490212;32;20048;-85
2022/06/05 08:07:03;;;;;;;;;;;;;;;28.80;60.72;99877.16;4491303;32;19976;-85
2022/06/05 08:09:29;;;;;;;;;;;;;;;28.85;60.72;99873.03;4490123;32;19996;-85
2022/06/05 08:11:54;;;;;;;;;;;;;;;28.89;60.72;99882.44;4489876;32;20013;-85
2022/06/05 08:14:19;;;;;;;;;;;;;;;29.15;60.73;99881.47;4491159;32;19983;-85
2022/06/05 08:16:45;;;;;;;;;;;;;;;29.29;60.74;99878.13;4489843;32;19980;-84
2022/06/05 08:19:14;;;;;;;;;;;;;;;29.27;60.75;99874.78;4491167;31;19985;-85
2022/06/05 08:21:40;;;;;;;;;;;;;;;29.27;60.74;99875.62;4489715;32;19979;-84
2022/06/05 08:24:05;;;;;;;;;;;;;;;29.16;60.74;99881.31;4491150;31;20376;-85
2022/06/05 08:26:30;;;;;;;;;;;;;;;29.36;60.75;99884.53;4489849;32;20296;-84
2022/06/05 08:28:56;;;;;;;;;;;;;;;29.58;60.76;99875.84;4490916;32;20030;-82
2022/06/05 08:31:21;;;;;;;;;;;;;;;29.78;60.77;99883.53;4489351;32;20023;-84
2022/06/05 08:33:46;;;;;;;;;;;;;;;29.80;60.76;99885.03;4490677;32;19977;-84
2022/06/05 08:36:12;;;;;;;;;;;;;;;29.94;60.78;99883.50;4490686;31;19972;-84
2022/06/05 08:41:27;;;;;;;;;;;;;;;29.73;60.76;99885.88;4490840;32;19999;-84
2022/06/05 08:44:06;;;;;;;;;;;;;;;29.72;60.77;99884.22;4490762;32;19991;-84
2022/06/05 08:46:31;;;;;;;;;;;;;;;29.96;60.78;99892.22;4490670;31;19995;-84
2022/06/05 08:49:17;;;;;;;;;;;;;;;29.94;60.78;99888.88;4489301;32;19992;-84
2022/06/05 08:51:48;;;;;;;;;;;;;;;30.00;60.78;99898.94;4490351;32;20033;-84
2022/06/05 08:54:24;;;;;;;;;;;;;;;30.08;60.79;99892.75;4489664;32;20003;-84
2022/06/05 08:56:50;;;;;;;;;;;;;;;30.21;60.80;99885.00;4489135;32;20056;-84
2022/06/05 08:59:17;;;;;;;;;;;;;;;30.13;60.79;99876.97;4489386;32;20341;-82
2022/06/05 09:01:42;;;;;;;;;;;;;;;30.30;60.81;99877.78;4476045;32;20492;-84
2022/06/05 09:04:27;;;;;;;;;;;;;;;30.38;60.80;99872.34;4490522;32;20069;-82
2022/06/05 09:06:55;;;;;;;;;;;;;;;30.33;60.80;99872.06;4489248;32;20031;-82
2022/06/05 09:09:21;;;;;;;;;;;;;;;30.48;60.81;99867.59;4475844;32;19992;-82
2022/06/05 09:11:51;;;;;;;;;;;;;;;30.47;60.81;99868.62;4472473;32;20446;-81
2022/06/05 09:14:34;;;;;;;;;;;;;;;30.52;60.82;99861.75;4486341;32;19985;-82
2022/06/05 09:17:02;;;;;;;;;;;;;;;30.48;60.82;99865.75;4486160;32;20046;-82
2022/06/05 09:19:29;;;;;;;;;;;;;;;30.63;60.82;99865.06;4472989;32;20004;-81
2022/06/05 09:21:54;;;;;;;;;;;;;;;30.63;60.82;99863.22;4486240;32;19980;-81
2022/06/05 09:24:23;;;;;;;;;;;;;;;30.77;60.83;99869.72;4487458;32;19961;-81
2022/06/05 09:26:51;;;;;;;;;;;;;;;31.15;60.84;99860.72;4487464;31;19997;-81
2022/06/05 09:29:25;;;;;;;;;;;;;;;31.31;60.85;99853.59;4487577;31;20482;-81
2022/06/05 09:31:50;;;;;;;;;;;;;;;31.53;60.86;99858.09;4486212;32;19987;-81
2022/06/05 09:34:19;;;;;;;;;;;;;;;31.77;60.88;99861.63;4487399;32;20000;-81
2022/06/05 09:36:48;;;;;;;;;;;;;;;31.86;60.88;99866.75;4486209;32;19989;-81
2022/06/05 09:39:23;;;;;;;;;;;;;;;32.04;60.88;99863.69;4486156;32;20000;-81
2022/06/05 09:42:09;;;;;;;;;;;;;;;31.97;60.89;99871.69;4486158;32;20434;-81
2022/06/05 09:44:34;;;;;;;;;;;;;;;32.23;60.90;99873.09;4487118;32;19961;-81
2022/06/05 09:47:00;;;;;;;;;;;;;;;31.79;60.87;99873.88;4486342;32;20015;-81
2022/06/05 09:49:36;;;;;;;;;;;;;;;31.75;60.88;99883.34;4487801;31;20253;-81
2022/06/05 09:52:12;;;;;;;;;;;;;;;31.54;60.86;99900.13;4486031;32;20032;-81
2022/06/05 09:54:38;;;;;;;;;;;;;;;31.38;60.85;99901.09;4487035;31;20384;-81
2022/06/05 10:00:04;;;;;;;;;;;;;;;31.31;60.85;99891.25;4487117;32;20007;-81
2022/06/05 10:02:29;;;;;;;;;;;;;;;31.06;60.84;99906.66;4486009;32;19977;-81
2022/06/05 10:04:55;;;;;;;;;;;;;;;30.98;60.83;99898.62;4485857;32;19987;-81
2022/06/05 10:07:30;;;;;;;;;;;;;;;30.79;60.83;99886.50;4485856;32;19984;-81
2022/06/05 10:09:56;;;;;;;;;;;;;;;30.76;60.83;99893.06;4485971;32;20011;-82
2022/06/05 10:12:25;;;;;;;;;;;;;;;30.66;60.82;99903.16;4485546;32;19977;-81
2022/06/05 10:15:05;;;;;;;;;;;;;;;30.84;60.84;99892.16;4485846;32;19968;-81
2022/06/05 10:17:30;;;;;;;;;;;;;;;30.85;60.84;99896.53;4485669;32;19992;-81
2022/06/05 10:19:57;;;;;;;;;;;;;;;30.88;60.84;99900.72;4486990;32;20011;-81
2022/06/05 10:22:31;;;;;;;;;;;;;;;30.71;60.83;99902.63;4486888;31;19965;-81
2022/06/05 10:25:04;;;;;;;;;;;;;;;30.68;60.83;99893.06;4486952;32;20012;-81
2022/06/05 10:27:30;;;;;;;;;;;;;;;30.51;60.81;99894.94;4485715;32;19977;-81
2022/06/05 10:29:55;;;;;;;;;;;;;;;30.40;60.81;99884.59;4486495;32;21508;-81
2022/06/05 10:32:20;;;;;;;;;;;;;;;30.24;60.80;99890.84;4486937;31;20013;-81
2022/06/05 10:34:52;;;;;;;;;;;;;;;30.14;60.80;99887.53;4487110;32;20023;-82
2022/06/05 10:37:35;;;;;;;;;;;;;;;30.07;60.80;99878.50;4486851;32;20041;-81
2022/06/05 10:40:10;;;;;;;;;;;;;;;29.96;60.79;99876.12;4487155;31;19988;-81
2022/06/05 10:42:47;;;;;;;;;;;;;;;30.01;60.79;99867.56;4485566;32;19990;-82
2022/06/05 10:45:31;;;;;;;;;;;;;;;30.18;60.80;99869.22;4487003;31;19972;-81
2022/06/05 10:47:56;;;;;;;;;;;;;;;30.10;60.80;99859.38;4487234;31;20000;-82
2022/06/05 10:50:29;;;;;;;;;;;;;;;30.18;60.80;99861.19;4487234;32;19990;-82
2022/06/05 10:53:11;;;;;;;;;;;;;;;30.21;60.81;99850.09;4487017;31;19973;-81
2022/06/05 10:55:43;;;;;;;;;;;;;;;30.39;60.81;99849.88;4472709;32;20593;-82
2022/06/05 10:58:19;;;;;;;;;;;;;;;30.40;60.81;99849.69;4486870;32;19981;-82
2022/06/05 11:00:50;;;;;;;;;;;;;;;30.14;60.80;99851.78;4485690;32;20400;-82
2022/06/05 11:03:27;;;;;;;;;;;;;;;29.93;60.79;99855.84;4486831;32;20024;-81
2022/06/05 11:06:04;;;;;;;;;;;;;;;30.06;60.80;99852.66;4485114;32;19972;-81
2022/06/05 11:08:35;;;;;;;;;;;;;;;30.12;60.80;99841.22;4486732;32;19976;-81
2022/06/05 11:14:17;;;;;;;;;;;;;;;30.33;60.81;99834.44;4485810;32;19983;-82
2022/06/05 11:16:47;;;;;;;;;;;;;;;30.39;60.81;99847.19;4486897;31;20033;-82
2022/06/05 11:19:32;;;;;;;;;;;;;;;30.23;60.81;99842.69;4485607;32;20324;-82
2022/06/05 11:21:58;;;;;;;;;;;;;;;30.29;60.81;99844.72;4487009;31;19988;-82
2022/06/05 11:24:25;;;;;;;;;;;;;;;30.33;60.81;99851.41;4485689;32;19990;-82
2022/06/05 11:27:13;;;;;;;;;;;;;;;30.28;60.82;99856.44;4485686;32;19972;-82
2022/06/05 11:29:41;;;;;;;;;;;;;;;30.40;60.82;99852.38;4478014;32;19973;-81
2022/06/05 11:32:25;;;;;;;;;;;;;;;30.51;60.81;99845.75;4486533;32;20052;-82
2022/06/05 11:34:50;;;;;;;;;;;;;;;30.64;60.83;99847.94;4484481;32;20398;-81
2022/06/05 11:37:15;;;;;;;;;;;;;;;30.72;60.83;99839.81;4487051;32;20012;-82
2022/06/05 11:39:47;;;;;;;;;;;;;;;30.83;60.83;99844.81;4486904;32;19984;-82
2022/06/05 11:42:25;;;;;;;;;;;;;;;31.07;60.85;99855.41;4486487;32;20045;-82
2022/06/05 11:44:52;;;;;;;;;;;;;;;30.96;60.84;99844.22;4486396;31;19982;-82
2022/06/05 11:47:37;;;;;;;;;;;;;;;30.97;60.84;99840.50;4485119;32;19999;-82
2022/06/05 11:50:11;;;;;;;;;;;;;;;30.90;60.84;99834.16;4486346;31;19992;-82
2022/06/05 11:52:55;;;;;;;;;;;;;;;30.98;60.84;99828.72;4486316;32;20137;-82
2022/06/05 11:55:29;;;;;;;;;;;;;;;31.03;60.85;99832.59;4486416;31;19991;-82
2022/06/05 11:58:01;;;;;;;;;;;;;;;30.97;60.84;99832.44;4471960;32;19984;-82
2022/06/05 12:00:50;;;;;;;;;;;;;;;31.00;60.84;99815.97;4472076;32;20004;-82
2022/06/05 12:03:16;;;;;;;;;;;;;;;30.91;60.84;99809.81;4477955;31;20006;-82
2022/06/05 12:05:49;;;;;;;;;;;;;;;30.72;60.83;99805.72;4484885;32;19996;-82
2022/06/05 12:08:28;;;;;;;;;;;;;;;30.82;60.84;99800.12;4485000;32;20048;-81
2022/06/05 12:11:07;;;;;;;;;;;;;;;30.91;60.84;99800.91;4471851;32;20014;-82
2022/06/05 12:13:35;;;;;;;;;;;;;;;31.27;60.86;99798.47;4485126;32;19988;-82
2022/06/05 12:16:10;;;;;;;;;;;;;;;31.44;60.87;99792.75;4484695;32;19981;-82
2022/06/05 12:18:40;;;;;;;;;;;;;;;31.49;60.87;99788.72;4484630;32;19990;-82
2022/06/05 12:21:10;;;;;;;;;;;;;;;31.27;60.86;99788.56;4484669;32;20029;-81
2022/06/05 12:23:43;;;;;;;;;;;;;;;31.22;60.85;99773.97;4484699;32;19993;-82
2022/06/05 12:26:24;;;;;;;;;;;;;;;31.24;60.86;99788.94;4484589;32;19995;-82
2022/06/05 12:28:53;;;;;;;;;;;;;;;31.42;60.87;99783.19;4485762;31;19995;-82
2022/06/05 12:31:22;;;;;;;;;;;;;;;31.51;60.88;99781.28;4471431;32;20019;-82
2022/06/05 12:33:49;;;;;;;;;;;;;;;31.53;60.87;99766.63;4484536;32;19992;-82
2022/06/05 12:36:20;;;;;;;;;;;;;;;31.75;60.89;99767.59;4484494;32;20270;-82
2022/06/05 12:38:52;;;;;;;;;;;;;;;31.69;60.89;99769.12;4484574;32;19999;-81
2022/06/05 12:41:19;;;;;;;;;;;;;;;31.73;60.89;99766.97;4484398;32;20054;-82
2022/06/05 12:43:44;;;;;;;;;;;;;;;31.90;60.89;99763.03;4484471;32;20357;-82
2022/06/05 12:46:30;;;;;;;;;;;;;;;31.83;60.89;99761.28;4486618;32;20009;-81
2022/06/05 12:49:23;;;;;;;;;;;;;;;31.89;60.90;99755.16;4487674;32;19972;-82
2022/06/05 12:51:58;;;;;;;;;;;;;;;31.96;60.90;99758.78;4457757;32;19993;-82
2022/06/05 12:54:27;;;;;;;;;;;;;;;31.99;60.89;99748.47;4473626;32;19988;-82
2022/06/05 12:56:53;;;;;;;;;;;;;;;32.14;60.91;99753.81;4487655;31;20427;-82
2022/06/05 12:59:21;;;;;;;;;;;;;;;32.21;60.91;99748.53;4487686;31;20567;-82
2022/06/05 13:01:52;;;;;;;;;;;;;;;32.25;60.91;99747.13;4487753;31;20347;-83
2022/06/05 13:04:37;;;;;;;;;;;;;;;32.45;60.92;99744.72;4486487;32;20044;-82
2022/06/05 13:07:04;;;;;;;;;;;;;;;32.08;60.90;99751.06;4486374;32;19972;-82
2022/06/05 13:09:35;;;;;;;;;;;;;;;31.89;60.90;99739.84;4487623;31;20396;-82
2022/06/05 13:12:03;;;;;;;;;;;;;;;31.99;60.90;99729.63;4487629;32;20071;-82